createdAt,value
2018-07-22T00:00:46.935Z,3.00
2018-07-22T00:03:15.001Z,3.83
2018-07-22T00:05:43.119Z,3.00
2018-07-22T00:08:11.197Z,3.63
2018-07-22T00:10:39.270Z,4.70
2018-07-22T00:13:07.347Z,3.30
2018-07-22T00:15:35.417Z,3.63
2018-07-22T00:18:03.488Z,4.17
2018-07-22T00:20:31.568Z,3.33
2018-07-22T00:22:59.663Z,4.47
2018-07-22T00:25:27.849Z,6.43
2018-07-22T00:27:55.961Z,3.70
2018-07-22T00:30:24.040Z,4.03
2018-07-22T00:32:52.115Z,4.20
2018-07-22T00:35:20.181Z,5.00
2018-07-22T00:37:48.247Z,5.97
2018-07-22T00:40:16.309Z,4.37
2018-07-22T00:42:44.380Z,6.03
2018-07-22T00:45:14.321Z,4.20
2018-07-22T00:47:42.979Z,3.93
2018-07-22T00:50:11.075Z,4.73
2018-07-22T00:52:39.759Z,6.13
2018-07-22T00:55:07.818Z,5.10
2018-07-22T00:57:35.906Z,6.10
2018-07-22T01:00:04.987Z,4.70
2018-07-22T01:02:33.023Z,6.37
2018-07-22T01:05:01.146Z,5.80
2018-07-22T01:07:29.338Z,5.20
2018-07-22T01:09:57.506Z,4.97
2018-07-22T01:12:25.670Z,7.53
2018-07-22T01:14:53.783Z,6.03
2018-07-22T01:17:21.860Z,5.47
2018-07-22T01:19:49.988Z,7.57
2018-07-22T01:22:18.487Z,7.77
2018-07-22T01:24:46.574Z,5.87
2018-07-22T01:27:14.660Z,6.37
2018-07-22T01:29:42.757Z,5.50
2018-07-22T01:32:10.805Z,6.43
2018-07-22T01:34:38.959Z,7.40
2018-07-22T01:37:07.075Z,7.17
2018-07-22T01:39:35.162Z,6.03
2018-07-22T01:42:03.303Z,6.80
2018-07-22T01:44:31.421Z,6.90
2018-07-22T01:46:59.542Z,6.90
2018-07-22T01:49:27.634Z,7.90
2018-07-22T01:51:55.730Z,6.00
2018-07-22T01:54:23.963Z,5.53
2018-07-22T01:56:52.042Z,6.53
2018-07-22T01:59:20.188Z,7.10
2018-07-22T02:01:48.256Z,6.00
2018-07-22T02:04:16.342Z,7.10
2018-07-22T02:06:44.430Z,6.40
2018-07-22T02:09:12.483Z,6.53
2018-07-22T02:11:40.546Z,7.03
2018-07-22T02:14:09.014Z,5.97
2018-07-22T02:16:37.075Z,8.20
2018-07-22T02:19:05.247Z,9.30
2018-07-22T02:21:33.310Z,6.30
2018-07-22T02:24:01.519Z,6.53
2018-07-22T02:26:29.680Z,6.33
2018-07-22T02:28:57.754Z,7.73
2018-07-22T02:31:25.908Z,9.07
2018-07-22T02:33:54.489Z,7.07
2018-07-22T02:36:22.574Z,6.20
2018-07-22T02:38:50.651Z,6.73
2018-07-22T02:41:18.790Z,7.60
2018-07-22T02:43:46.872Z,6.30
2018-07-22T02:46:15.063Z,6.33
2018-07-22T02:48:43.236Z,8.53
2018-07-22T02:51:11.356Z,7.30
2018-07-22T02:53:39.457Z,5.67
2018-07-22T02:56:07.520Z,7.60
2018-07-22T02:58:35.579Z,6.57
2018-07-22T03:01:03.736Z,7.07
2018-07-22T03:03:31.814Z,6.87
2018-07-22T03:05:59.950Z,7.23
2018-07-22T03:08:27.999Z,6.50
2018-07-22T03:10:56.084Z,5.87
2018-07-22T03:13:24.180Z,6.73
2018-07-22T03:15:52.318Z,6.37
2018-07-22T03:18:20.403Z,7.90
2018-07-22T03:20:48.466Z,5.87
2018-07-22T03:23:16.552Z,6.00
2018-07-22T03:25:44.632Z,7.00
2018-07-22T03:28:12.684Z,7.63
2018-07-22T03:30:40.770Z,5.90
2018-07-22T03:33:08.842Z,6.30
2018-07-22T03:35:36.939Z,6.73
2018-07-22T03:38:04.990Z,5.07
2018-07-22T03:40:33.089Z,5.83
2018-07-22T03:43:01.179Z,6.23
2018-07-22T03:45:29.235Z,5.70
2018-07-22T03:47:57.312Z,8.57
2018-07-22T03:50:25.391Z,6.43
2018-07-22T03:52:53.487Z,6.37
2018-07-22T03:55:21.566Z,6.70
2018-07-22T03:57:49.651Z,6.00
2018-07-22T04:00:17.726Z,7.47
2018-07-22T04:02:45.793Z,7.00
2018-07-22T04:05:13.854Z,6.17
2018-07-22T04:07:41.917Z,8.07
2018-07-22T04:10:10.001Z,7.87
2018-07-22T04:12:38.092Z,7.23
2018-07-22T04:15:06.246Z,5.93
2018-07-22T04:17:34.427Z,6.50
2018-07-22T04:20:02.569Z,6.43
2018-07-22T04:22:31.461Z,5.23
2018-07-22T04:24:59.581Z,5.73
2018-07-22T04:27:27.685Z,6.87
2018-07-22T04:29:55.854Z,6.47
2018-07-22T04:32:23.939Z,5.47
2018-07-22T04:34:51.986Z,5.90
2018-07-22T04:37:20.094Z,5.93
2018-07-22T04:39:48.169Z,6.63
2018-07-22T04:42:16.226Z,7.60
2018-07-22T04:44:44.302Z,6.87
2018-07-22T04:47:12.400Z,7.10
2018-07-22T04:49:40.474Z,7.20
2018-07-22T04:52:08.546Z,5.13
2018-07-22T04:54:36.843Z,5.83
2018-07-22T04:57:05.004Z,4.93
2018-07-22T04:59:33.298Z,5.17
2018-07-22T05:02:01.355Z,5.83
2018-07-22T05:04:29.419Z,6.50
2018-07-22T05:06:57.533Z,5.67
2018-07-22T05:09:25.615Z,6.67
2018-07-22T05:11:53.678Z,5.67
2018-07-22T05:14:21.753Z,4.80
2018-07-22T05:16:49.840Z,4.93
2018-07-22T05:19:17.953Z,5.70
2018-07-22T05:21:46.043Z,4.63
2018-07-22T05:24:14.261Z,4.80
2018-07-22T05:26:42.391Z,4.60
2018-07-22T05:29:10.499Z,4.83
2018-07-22T05:31:38.559Z,4.50
2018-07-22T05:34:06.654Z,5.47
2018-07-22T05:36:34.707Z,4.37
2018-07-22T05:39:02.935Z,4.73
2018-07-22T05:41:31.700Z,4.60
2018-07-22T05:43:59.762Z,5.77
2018-07-22T05:46:27.828Z,4.37
2018-07-22T05:48:55.952Z,4.40
2018-07-22T05:51:24.052Z,6.30
2018-07-22T05:53:52.161Z,5.57
2018-07-22T05:56:20.238Z,4.00
2018-07-22T05:58:48.397Z,4.30
2018-07-22T06:01:16.484Z,5.63
2018-07-22T06:03:44.640Z,9.40
2018-07-22T06:06:12.694Z,5.67
2018-07-22T06:08:40.841Z,4.30
2018-07-22T06:11:08.937Z,4.70
2018-07-22T06:13:37.570Z,4.43
2018-07-22T06:16:05.817Z,4.53
2018-07-22T06:18:33.958Z,3.83
2018-07-22T06:21:02.153Z,4.33
2018-07-22T06:23:30.345Z,5.83
2018-07-22T06:25:58.462Z,6.50
2018-07-22T06:28:26.554Z,4.27
2018-07-22T06:30:54.655Z,3.90
2018-07-22T06:33:22.795Z,3.83
2018-07-22T06:35:51.008Z,4.13
2018-07-22T06:38:19.150Z,4.13
2018-07-22T06:40:47.427Z,3.67
2018-07-22T06:43:15.545Z,3.43
2018-07-22T06:45:43.854Z,3.97
2018-07-22T06:48:12.030Z,3.53
2018-07-22T06:50:40.191Z,4.53
2018-07-22T06:53:08.286Z,4.37
2018-07-22T06:55:37.503Z,3.97
2018-07-22T06:58:06.017Z,4.03
2018-07-22T07:00:34.167Z,3.73
2018-07-22T07:03:02.288Z,4.97
2018-07-22T07:05:30.415Z,4.60
2018-07-22T07:07:58.650Z,4.67
2018-07-22T07:10:26.721Z,4.23
2018-07-22T07:12:54.860Z,4.43
2018-07-22T07:15:22.917Z,4.60
2018-07-22T07:17:51.003Z,4.17
2018-07-22T07:20:19.083Z,5.03
2018-07-22T07:22:47.241Z,5.47
2018-07-22T07:25:15.265Z,4.87
2018-07-22T07:27:45.629Z,4.03
2018-07-22T07:30:13.694Z,4.23
2018-07-22T07:32:43.232Z,3.60
2018-07-22T07:35:12.420Z,4.43
2018-07-22T07:37:41.853Z,5.07
2018-07-22T07:40:10.613Z,3.97
2018-07-22T07:42:40.171Z,3.93
2018-07-22T07:45:08.844Z,4.03
2018-07-22T07:47:36.934Z,5.43
2018-07-22T07:50:05.016Z,3.60
2018-07-22T07:52:33.168Z,5.40
2018-07-22T07:55:01.251Z,4.20
2018-07-22T07:57:29.304Z,4.30
2018-07-22T07:59:57.436Z,14.27
2018-07-22T08:02:26.077Z,11.30
2018-07-22T08:04:54.432Z,11.83
2018-07-22T08:07:22.623Z,12.33
2018-07-22T08:09:50.718Z,10.77
2018-07-22T08:12:18.799Z,8.87
2018-07-22T08:14:46.880Z,8.17
2018-07-22T08:17:16.489Z,10.03
2018-07-22T08:19:44.547Z,12.13
2018-07-22T08:22:12.684Z,9.40
2018-07-22T08:24:40.704Z,20.73
2018-07-22T08:27:08.825Z,10.33
2018-07-22T08:29:36.920Z,9.73
2018-07-22T08:32:05.879Z,8.87
2018-07-22T08:34:33.959Z,10.47
2018-07-22T08:37:02.354Z,9.93
2018-07-22T08:39:31.535Z,6.80
2018-07-22T08:42:00.121Z,8.90
2018-07-22T08:44:28.188Z,6.83
2018-07-22T08:46:56.295Z,7.57
2018-07-22T08:49:26.110Z,7.10
2018-07-22T08:51:54.232Z,6.07
2018-07-22T08:54:22.353Z,4.97
2018-07-22T08:56:50.414Z,7.70
2018-07-22T08:59:18.554Z,7.57
2018-07-22T09:01:46.660Z,6.37
2018-07-22T09:04:14.735Z,6.37
2018-07-22T09:06:42.850Z,5.50
2018-07-22T09:09:11.902Z,4.43
2018-07-22T09:11:40.023Z,5.27
2018-07-22T09:14:08.475Z,4.83
2018-07-22T09:16:36.645Z,4.63
2018-07-22T09:19:04.782Z,5.07
2018-07-22T09:21:32.888Z,5.83
2018-07-22T09:24:01.082Z,5.13
2018-07-22T09:26:29.148Z,4.90
2018-07-22T09:28:57.509Z,3.97
2018-07-22T09:31:25.583Z,7.67
2018-07-22T09:33:53.655Z,6.23
2018-07-22T09:36:21.804Z,7.33
2018-07-22T09:38:49.878Z,6.83
2018-07-22T09:41:18.063Z,5.80
2018-07-22T09:43:46.130Z,4.37
2018-07-22T09:46:14.249Z,6.73
2018-07-22T09:48:43.395Z,6.93
2018-07-22T09:51:11.471Z,6.40
2018-07-22T09:53:39.588Z,6.40
2018-07-22T09:56:07.672Z,4.73
2018-07-22T09:58:36.474Z,8.17
2018-07-22T10:01:04.524Z,6.43
2018-07-22T10:03:32.882Z,6.23
2018-07-22T10:06:00.969Z,5.67
2018-07-22T10:08:29.051Z,8.93
2018-07-22T10:10:57.167Z,10.00
2018-07-22T10:13:26.312Z,9.27
2018-07-22T10:15:54.447Z,9.73
2018-07-22T10:18:22.888Z,9.43
2018-07-22T10:20:51.018Z,7.63
2018-07-22T10:23:19.113Z,7.00
2018-07-22T10:25:47.349Z,8.83
2018-07-22T10:28:15.613Z,9.47
2018-07-22T10:30:43.754Z,7.37
2018-07-22T10:33:11.929Z,8.33
2018-07-22T10:35:40.084Z,8.47
2018-07-22T10:38:08.196Z,7.37
2018-07-22T10:40:36.299Z,7.13
2018-07-22T10:43:04.481Z,7.57
2018-07-22T10:45:32.599Z,8.43
2018-07-22T10:48:00.715Z,9.03
2018-07-22T10:50:28.841Z,8.97
2018-07-22T10:52:56.916Z,8.00
2018-07-22T10:55:25.040Z,10.83
2018-07-22T10:57:53.139Z,6.80
2018-07-22T11:00:21.215Z,9.10
2018-07-22T11:02:49.288Z,7.13
2018-07-22T11:05:17.345Z,7.13
2018-07-22T11:07:45.481Z,9.37
2018-07-22T11:10:13.555Z,8.50
2018-07-22T11:12:42.368Z,14.90
2018-07-22T11:15:11.011Z,11.80
2018-07-22T11:17:41.850Z,7.70
2018-07-22T11:20:09.964Z,9.73
2018-07-22T11:22:38.132Z,12.27
2018-07-22T11:25:06.333Z,15.77
2018-07-22T11:27:34.446Z,13.27
2018-07-22T11:30:02.551Z,13.40
2018-07-22T11:32:30.729Z,10.63
2018-07-22T11:34:59.027Z,9.77
2018-07-22T11:37:27.099Z,9.73
2018-07-22T11:39:55.435Z,13.10
2018-07-22T11:42:23.691Z,14.80
2018-07-22T11:44:51.797Z,15.13
2018-07-22T11:47:19.921Z,13.13
2018-07-22T11:49:48.380Z,12.20
2018-07-22T11:52:16.738Z,13.70
2018-07-22T11:54:45.324Z,7.37
2018-07-22T11:57:13.925Z,9.33
2018-07-22T11:59:42.276Z,9.80
2018-07-22T12:02:11.500Z,7.13
2018-07-22T12:04:40.323Z,6.27
2018-07-22T12:07:08.750Z,7.90
2018-07-22T12:09:37.120Z,8.33
2018-07-22T12:12:06.535Z,7.70
2018-07-22T12:14:35.158Z,6.13
2018-07-22T12:17:03.515Z,6.13
2018-07-22T12:19:31.952Z,5.90
2018-07-22T12:22:00.316Z,6.23
2018-07-22T12:24:28.445Z,5.33
2018-07-22T12:26:56.968Z,5.80
2018-07-22T12:29:25.351Z,5.27
2018-07-22T12:31:53.731Z,6.77
2018-07-22T12:34:22.302Z,5.10
2018-07-22T12:36:50.710Z,7.63
2018-07-22T12:39:19.172Z,5.63
2018-07-22T12:41:47.620Z,6.73
2018-07-22T12:44:16.079Z,7.27
2018-07-22T12:46:45.471Z,9.10
2018-07-22T12:49:14.063Z,7.13
2018-07-22T12:51:42.426Z,6.97
2018-07-22T12:54:10.915Z,6.30
2018-07-22T12:56:39.506Z,5.77
2018-07-22T12:59:07.922Z,5.87
2018-07-22T13:01:36.329Z,4.90
2018-07-22T13:04:04.803Z,6.53
2018-07-22T13:06:33.219Z,5.80
2018-07-22T13:09:01.634Z,5.57
2018-07-22T13:11:30.995Z,10.17
2018-07-22T13:13:59.401Z,5.77
2018-07-22T13:16:27.751Z,4.47
2018-07-22T13:18:56.211Z,5.13
2018-07-22T13:21:25.212Z,5.33
2018-07-22T13:23:53.559Z,5.63
2018-07-22T13:26:21.972Z,6.17
2018-07-22T13:28:50.354Z,5.37
2018-07-22T13:31:18.856Z,8.07
2018-07-22T13:33:47.398Z,5.90
2018-07-22T13:36:15.818Z,5.07
2018-07-22T13:38:44.196Z,4.53
2018-07-22T13:41:12.611Z,4.80
2018-07-22T13:43:41.786Z,5.30
2018-07-22T13:46:10.187Z,4.03
2018-07-22T13:48:39.527Z,3.93
2018-07-22T13:51:07.940Z,6.83
2018-07-22T13:53:36.397Z,4.47
2018-07-22T13:56:04.815Z,3.83
2018-07-22T13:58:33.252Z,4.20
2018-07-22T14:01:01.732Z,4.30
2018-07-22T14:03:30.127Z,5.23
2018-07-22T14:05:58.499Z,4.80
2018-07-22T14:08:26.991Z,4.17
2018-07-22T14:10:55.365Z,3.63
2018-07-22T14:13:23.772Z,3.53
2018-07-22T14:15:52.307Z,5.30
2018-07-22T14:18:20.658Z,5.17
2018-07-22T14:20:49.057Z,9.17
2018-07-22T14:23:17.491Z,7.57
2018-07-22T14:25:45.911Z,8.00
2018-07-22T14:28:14.383Z,8.33
2018-07-22T14:30:42.707Z,7.93
2018-07-22T14:33:11.068Z,4.10
2018-07-22T14:35:39.605Z,6.13
2018-07-22T14:38:08.173Z,5.00
2018-07-22T14:40:36.891Z,5.60
2018-07-22T14:43:05.692Z,5.73
2018-07-22T14:45:34.812Z,6.97
2018-07-22T14:48:03.343Z,7.83
2018-07-22T14:50:32.262Z,4.60
2018-07-22T14:53:00.917Z,4.77
2018-07-22T14:55:30.016Z,5.73
2018-07-22T14:57:58.433Z,5.50
2018-07-22T15:00:27.029Z,4.40
2018-07-22T15:02:55.450Z,5.07
2018-07-22T15:05:23.787Z,4.00
2018-07-22T15:07:52.184Z,4.60
2018-07-22T15:10:20.560Z,8.13
2018-07-22T15:12:49.023Z,4.37
2018-07-22T15:15:17.446Z,5.80
2018-07-22T15:17:45.902Z,7.03
2018-07-22T15:20:14.307Z,6.30
2018-07-22T15:22:43.642Z,4.97
2018-07-22T15:25:12.174Z,4.83
2018-07-22T15:27:40.531Z,8.73
2018-07-22T15:30:09.040Z,4.70
2018-07-22T15:32:38.605Z,4.37
2018-07-22T15:35:06.977Z,4.90
2018-07-22T15:37:35.353Z,4.57
2018-07-22T15:40:04.026Z,5.17
2018-07-22T15:42:32.612Z,4.80
2018-07-22T15:45:00.972Z,4.50
2018-07-22T15:47:30.202Z,5.40
2018-07-22T15:49:59.214Z,5.83
2018-07-22T15:52:27.724Z,3.47
2018-07-22T15:54:56.402Z,4.37
2018-07-22T15:57:24.800Z,3.77
2018-07-22T15:59:53.543Z,5.97
2018-07-22T16:02:22.033Z,5.47
2018-07-22T16:04:50.429Z,4.93
2018-07-22T16:07:18.943Z,4.33
2018-07-22T16:09:47.351Z,6.53
2018-07-22T16:12:15.803Z,4.37
2018-07-22T16:14:44.296Z,4.47
2018-07-22T16:17:12.705Z,5.40
2018-07-22T16:19:41.105Z,6.17
2018-07-22T16:22:09.514Z,5.40
2018-07-22T16:24:38.810Z,7.73
2018-07-22T16:27:07.247Z,6.40
2018-07-22T16:29:35.422Z,5.00
2018-07-22T16:32:04.254Z,7.03
2018-07-22T16:34:32.632Z,4.90
2018-07-22T16:37:01.889Z,4.43
2018-07-22T16:39:30.567Z,5.77
2018-07-22T16:41:59.581Z,4.20
2018-07-22T16:44:28.053Z,4.03
2018-07-22T16:46:56.515Z,4.73
2018-07-22T16:49:26.555Z,3.67
2018-07-22T16:51:54.955Z,5.70
2018-07-22T16:54:23.358Z,3.60
2018-07-22T16:56:51.784Z,3.77
2018-07-22T16:59:20.375Z,4.57
2018-07-22T17:01:48.735Z,3.97
2018-07-22T17:04:17.123Z,6.30
2018-07-22T17:06:45.552Z,3.60
2018-07-22T17:09:13.974Z,8.43
2018-07-22T17:11:42.440Z,3.97
2018-07-22T17:14:10.855Z,8.37
2018-07-22T17:16:39.254Z,3.70
2018-07-22T17:19:08.274Z,4.77
2018-07-22T17:21:37.802Z,4.23
2018-07-22T17:24:06.275Z,5.90
2018-07-22T17:26:34.650Z,4.20
2018-07-22T17:29:03.217Z,4.27
2018-07-22T17:31:31.696Z,3.70
2018-07-22T17:34:00.702Z,4.17
2018-07-22T17:36:29.968Z,4.10
2018-07-22T17:38:58.551Z,5.67
2018-07-22T17:41:27.088Z,5.97
2018-07-22T17:43:55.513Z,5.70
2018-07-22T17:46:24.003Z,5.43
2018-07-22T17:48:52.396Z,3.43
2018-07-22T17:51:20.842Z,5.60
2018-07-22T17:53:49.865Z,4.87
2018-07-22T17:56:18.268Z,3.80
2018-07-22T17:58:46.733Z,3.23
2018-07-22T18:01:15.363Z,4.33
2018-07-22T18:03:43.825Z,3.70
2018-07-22T18:06:12.403Z,3.90
2018-07-22T18:08:40.891Z,3.33
2018-07-22T18:11:09.327Z,5.90
2018-07-22T18:13:37.751Z,8.97
2018-07-22T18:16:06.182Z,6.87
2018-07-22T18:18:34.634Z,6.10
2018-07-22T18:21:03.620Z,4.83
2018-07-22T18:23:32.000Z,6.57
2018-07-22T18:26:00.147Z,4.03
2018-07-22T18:28:28.692Z,3.87
2018-07-22T18:30:57.060Z,5.73
2018-07-22T18:33:25.928Z,9.03
2018-07-22T18:35:54.267Z,6.30
2018-07-22T18:38:22.859Z,5.33
2018-07-22T18:40:51.553Z,4.63
2018-07-22T18:43:19.959Z,5.57
2018-07-22T18:45:48.508Z,6.10
2018-07-22T18:48:17.202Z,5.27
2018-07-22T18:50:46.078Z,4.50
2018-07-22T18:53:14.764Z,5.37
2018-07-22T18:55:43.553Z,3.70
2018-07-22T18:58:12.450Z,4.10
2018-07-22T19:00:41.441Z,4.23
2018-07-22T19:03:10.229Z,4.07
2018-07-22T19:05:38.876Z,4.30
2018-07-22T19:08:07.805Z,4.20
2018-07-22T19:10:36.805Z,5.37
2018-07-22T19:13:05.396Z,6.60
2018-07-22T19:15:34.168Z,3.97
2018-07-22T19:18:03.066Z,5.53
2018-07-22T19:20:31.852Z,6.73
2018-07-22T19:23:00.638Z,5.03
2018-07-22T19:25:29.322Z,3.97
2018-07-22T19:27:58.930Z,5.93
2018-07-22T19:30:28.841Z,3.83
2018-07-22T19:32:57.739Z,4.77
2018-07-22T19:35:26.635Z,4.17
2018-07-22T19:37:55.518Z,4.40
2018-07-22T19:40:25.451Z,4.90
2018-07-22T19:42:54.431Z,5.10
2018-07-22T19:45:23.430Z,5.53
2018-07-22T19:47:52.315Z,4.50
2018-07-22T19:50:21.210Z,4.63
2018-07-22T19:52:50.073Z,6.30
2018-07-22T19:55:19.089Z,5.13
2018-07-22T19:57:48.286Z,5.57
2018-07-22T20:00:17.320Z,4.40
2018-07-22T20:02:46.068Z,6.23
2018-07-22T20:05:15.064Z,5.47
2018-07-22T20:07:43.906Z,5.53
2018-07-22T20:10:12.740Z,7.37
2018-07-22T20:12:41.859Z,6.93
2018-07-22T20:15:10.728Z,5.30
2018-07-22T20:17:39.620Z,5.47
2018-07-22T20:20:09.980Z,6.20
2018-07-22T20:22:39.187Z,5.97
2018-07-22T20:25:07.803Z,4.17
2018-07-22T20:27:36.660Z,5.23
2018-07-22T20:30:05.588Z,4.73
2018-07-22T20:32:34.442Z,4.53
2018-07-22T20:35:02.840Z,4.30
2018-07-22T20:37:31.652Z,4.30
2018-07-22T20:40:00.396Z,4.60
2018-07-22T20:42:29.188Z,3.67
2018-07-22T20:44:57.632Z,5.93
2018-07-22T20:47:26.025Z,5.27
2018-07-22T20:49:54.465Z,4.53
2018-07-22T20:52:22.828Z,4.17
2018-07-22T20:54:51.662Z,4.40
2018-07-22T20:57:20.160Z,3.53
2018-07-22T20:59:48.631Z,4.00
2018-07-22T21:02:17.197Z,6.87
2018-07-22T21:04:45.664Z,5.70
2018-07-22T21:07:14.205Z,10.13
2018-07-22T21:09:42.597Z,8.07
2018-07-22T21:12:50.042Z,4.70
2018-07-22T21:15:19.470Z,7.83
2018-07-22T21:17:48.870Z,5.87
2018-07-22T21:20:18.279Z,5.30
2018-07-22T21:22:46.808Z,6.50
2018-07-22T21:25:15.720Z,7.53
2018-07-22T21:27:44.452Z,5.63
2018-07-22T21:30:13.393Z,6.03
2018-07-22T21:32:41.955Z,4.47
2018-07-22T21:35:10.165Z,5.03
2018-07-22T21:37:38.944Z,4.77
2018-07-22T21:40:07.401Z,4.67
2018-07-22T21:42:35.919Z,4.10
2018-07-22T21:45:05.384Z,4.27
2018-07-22T21:47:34.042Z,5.27
2018-07-22T21:50:02.615Z,4.53
